Aeroporto :
LOGIN :

Iscrizione | Disclaimer

   EN    FR    IT 

 










Sommario :    VFR   VFR Marginale   IFR   IFR Intensivo   IFR Molto Intensivo
Visibilità : 
Base nubi : 
>= 8 km
>= 3000ft
5 / 8 km
1000 / 3000 ft
1500m / 5 km
500 / 1000 ft
800 / 1500m
200 / 500 ft
< 800m
< 200 ft
Simboli :   Temporali  Nebbia  Neve Forte  Precipitazioni Forti  Vento > 20 kt
SIGMETs :   Varie  Temporali  Ghiacco  Turbolenza  Onda orograficha  Ceneri Vulcaniche







- Altitudine del aeroporto : 6 ft
- Codice IATA : PSA


LIRP - Galileo Galilei Pisa

ULTIMO METAR :
  • 181915Z 30002KT CAVOK 25/17 Q1015 NOSIG

METARs OBSOLETI :
  • 181845Z 33005KT CAVOK 25/18 Q1015 NOSIG
  • 181815Z 30005KT CAVOK 25/17 Q1014 NOSIG
  • 181745Z 32005KT CAVOK 27/15 Q1014 NOSIG
  • 181715Z 32008KT CAVOK 27/15 Q1014 NOSIG
  • 181645Z 31008KT CAVOK 28/14 Q1014 NOSIG

TAF TAF LIRP
Valido dal 18 a 18 ore il 19 a 18 ore UTC


181700Z 1818/1918 09006KT CAVOK
TEMPO 1818/1821 35008KT
PROB30
TEMPO 1901/1906 5000 BR
BECMG 1907/1909 31010KT
Nessun NOTAM noto per questo aeroporto.
1 SIGMET conosciuto per la FIR Milano (LIMM) :
 
Turbolenza severa
LIMM SIGMET 10 VALID 181900/182200 LIIP
LIMM MILANO FIR SEV TURB FCST SE OF LINE N4659 E01216 - N4306 E00918 FL260/350 MOV E WKN=



MetMap, La meteo Aeronautica in un colpo d'occhio ! - Copyright ORBIFLY Dicembre 2007 - Disclaimer

ORBIFLY MET'MAP TEAM :

Programmazione e sviluppo : Alexandra Zaïnal
Concezione e sviluppo : Baudouin d'Aumeries
Co-Programmazione e sviluppo : Marc-Olivier Méhu
Supporto tecnico e logistico : Manuel Goepfert
Aiuto per la traduzione : Arnaldo La Scala

Contatto : metmap@orbifly.com




FONTI E CREDITI :

   NOAA